Terminal Aerodrome Forecast
Issued by NWS Bismarck, ND

Home | Current Version | Previous Version | Text Only | Print | Product List | Glossary On
Versions: 1 2 3 4 5 6 7 8 9 10 11 12 13 14 15 16 17 18 19 20 21 22 23 24
203
FTUS43 KBIS 302334
TAFBIS
TAF
KBIS 302334Z 3100/3124 15010KT P6SM SCT080
     FM312000 17016G22KT P6SM FEW120=

USA.gov is the U.S. government's official web portal to all federal, state and local government web resources and services.